createdAt,value
2019-03-25T00:01:51.869Z,6.35
2019-03-25T00:04:22.092Z,6.20
2019-03-25T00:06:52.340Z,5.95
2019-03-25T00:09:22.546Z,6.45
2019-03-25T00:11:52.852Z,5.92
2019-03-25T00:14:23.274Z,5.97
2019-03-25T00:16:53.324Z,5.70
2019-03-25T00:19:23.551Z,6.37
2019-03-25T00:21:53.774Z,6.22
2019-03-25T00:24:24.068Z,6.40
2019-03-25T00:26:54.291Z,5.80
2019-03-25T00:29:24.445Z,6.08
2019-03-25T00:31:54.666Z,5.85
2019-03-25T00:34:24.872Z,6.28
2019-03-25T00:36:55.192Z,6.20
2019-03-25T00:39:25.512Z,6.58
2019-03-25T00:41:55.665Z,5.90
2019-03-25T00:44:25.761Z,6.12
2019-03-25T00:46:56.001Z,6.87
2019-03-25T00:49:26.300Z,6.25
2019-03-25T00:51:56.528Z,5.83
2019-03-25T00:54:26.774Z,6.45
2019-03-25T00:56:56.999Z,5.78
2019-03-25T00:59:27.205Z,6.33
2019-03-25T01:01:57.519Z,6.47
2019-03-25T01:04:27.843Z,6.45
2019-03-25T01:06:58.063Z,5.92
2019-03-25T01:09:28.213Z,6.22
2019-03-25T01:11:58.427Z,5.83
2019-03-25T01:14:28.658Z,6.15
2019-03-25T01:16:58.960Z,6.10
2019-03-25T01:19:29.180Z,6.67
2019-03-25T01:21:59.311Z,5.80
2019-03-25T01:38:05.773Z,6.35
2019-03-25T01:40:36.065Z,6.12
2019-03-25T01:43:06.301Z,5.87
2019-03-25T01:45:36.538Z,6.03
2019-03-25T01:48:06.764Z,5.72
2019-03-25T02:19:39.348Z,5.47
2019-03-25T02:22:09.646Z,6.12
2019-03-25T02:24:39.870Z,5.75
2019-03-25T02:27:10.114Z,5.95
2019-03-25T02:29:40.356Z,5.33
2019-03-25T02:32:10.565Z,5.55
2019-03-25T02:34:40.874Z,6.05
2019-03-25T02:37:11.086Z,5.60
2019-03-25T02:52:12.502Z,5.70
2019-03-25T02:54:42.720Z,5.92
2019-03-25T02:57:13.018Z,5.53
2019-03-25T02:59:43.250Z,5.60
2019-03-25T03:02:13.387Z,5.90
2019-03-25T03:04:43.640Z,5.97
2019-03-25T03:07:13.809Z,5.67
2019-03-25T03:09:44.036Z,5.92
2019-03-25T03:12:14.359Z,5.92
2019-03-25T03:14:44.669Z,5.78
2019-03-25T03:17:14.830Z,5.55
2019-03-25T03:19:45.063Z,5.35
2019-03-25T03:22:15.353Z,5.50
2019-03-25T03:24:45.647Z,5.62
2019-03-25T03:27:15.778Z,5.70
2019-03-25T03:29:45.960Z,5.45
2019-03-25T03:32:17.701Z,6.30
2019-03-25T03:34:48.001Z,5.40
2019-03-25T03:37:18.234Z,5.42
2019-03-25T03:39:48.506Z,5.83
2019-03-25T03:42:18.714Z,5.85
2019-03-25T03:44:48.922Z,5.60
2019-03-25T03:47:19.335Z,5.00
2019-03-25T03:49:49.549Z,5.53
2019-03-25T03:52:19.697Z,5.67
2019-03-25T03:54:49.910Z,5.65
2019-03-25T03:57:20.144Z,5.37
2019-03-25T03:59:50.470Z,5.72
2019-03-25T04:02:20.774Z,5.50
2019-03-25T04:04:51.088Z,5.83
2019-03-25T04:07:21.247Z,5.95
2019-03-25T04:09:51.453Z,5.60
2019-03-25T04:12:21.685Z,5.72
2019-03-25T04:14:51.983Z,5.80
2019-03-25T04:17:22.208Z,5.87
2019-03-25T04:19:52.443Z,5.67
2019-03-25T04:22:22.684Z,5.62
2019-03-25T04:24:52.915Z,6.12
2019-03-25T04:27:24.108Z,6.03
2019-03-25T04:29:54.262Z,6.10
2019-03-25T04:32:24.601Z,6.42
2019-03-25T04:34:54.825Z,5.90
2019-03-25T04:37:25.109Z,5.78
2019-03-25T04:39:55.344Z,6.40
2019-03-25T04:42:25.583Z,5.78
2019-03-25T04:44:55.810Z,5.62
2019-03-25T04:47:26.034Z,6.10
2019-03-25T04:49:56.330Z,5.78
2019-03-25T04:52:26.654Z,5.92
2019-03-25T04:54:56.801Z,5.70
2019-03-25T04:57:27.020Z,5.70
2019-03-25T04:59:57.258Z,6.53
2019-03-25T05:02:27.859Z,6.03
2019-03-25T05:04:58.117Z,6.45
2019-03-25T05:07:28.399Z,5.65
2019-03-25T05:09:58.632Z,6.28
2019-03-25T05:12:30.371Z,5.72
2019-03-25T05:14:59.105Z,5.90
2019-03-25T05:17:29.321Z,5.80
2019-03-25T05:19:59.624Z,5.85
2019-03-25T05:22:29.580Z,6.37
2019-03-25T05:24:59.784Z,6.10
2019-03-25T05:27:29.981Z,5.90
2019-03-25T05:30:00.440Z,5.80
2019-03-25T05:32:30.627Z,5.87
2019-03-25T05:35:00.774Z,6.10
2019-03-25T05:37:31.007Z,6.35
2019-03-25T05:40:01.220Z,6.00
2019-03-25T05:42:31.517Z,6.25
2019-03-25T05:45:01.880Z,6.22
2019-03-25T05:47:32.173Z,6.12
2019-03-25T05:50:02.429Z,6.47
2019-03-25T05:52:32.658Z,6.65
2019-03-25T05:55:02.863Z,7.62
2019-03-25T05:57:33.200Z,7.60
2019-03-25T06:00:03.471Z,8.23
2019-03-25T06:02:33.620Z,7.12
2019-03-25T06:05:03.859Z,7.95
2019-03-25T06:07:34.079Z,8.40
2019-03-25T06:10:04.416Z,8.35
2019-03-25T06:12:34.583Z,8.03
2019-03-25T06:15:04.951Z,8.53
2019-03-25T06:17:35.168Z,7.90
2019-03-25T06:20:05.447Z,8.20
2019-03-25T06:22:35.616Z,7.00
2019-03-25T06:25:05.971Z,8.00
2019-03-25T06:27:36.246Z,7.30
2019-03-25T06:30:07.051Z,7.20
2019-03-25T06:32:37.307Z,7.10
2019-03-25T06:35:08.903Z,7.22
2019-03-25T06:37:39.422Z,7.40
2019-03-25T06:40:09.946Z,8.03
2019-03-25T06:42:40.168Z,7.50
2019-03-25T06:45:11.109Z,8.28
2019-03-25T06:47:41.349Z,7.87
2019-03-25T06:50:11.567Z,8.03
2019-03-25T06:52:41.966Z,7.03
2019-03-25T06:55:12.198Z,9.55
2019-03-25T06:57:42.434Z,8.20
2019-03-25T07:00:13.937Z,8.03
2019-03-25T07:02:44.195Z,7.58
2019-03-25T07:05:14.410Z,7.03
2019-03-25T07:07:44.560Z,8.48
2019-03-25T07:10:16.884Z,9.43
2019-03-25T07:12:47.064Z,9.13
2019-03-25T07:15:20.317Z,9.20
2019-03-25T07:17:50.467Z,9.98
2019-03-25T07:20:20.757Z,9.20
2019-03-25T07:22:51.097Z,9.23
2019-03-25T07:25:21.333Z,9.68
2019-03-25T07:27:51.573Z,9.40
2019-03-25T07:30:21.777Z,9.60
2019-03-25T07:32:52.115Z,10.05
2019-03-25T07:35:22.584Z,9.65
2019-03-25T07:37:52.839Z,8.98
2019-03-25T07:40:23.088Z,9.98
2019-03-25T07:42:53.320Z,10.08
2019-03-25T07:45:23.612Z,10.82
2019-03-25T07:47:53.838Z,9.68
2019-03-25T07:50:24.098Z,9.95
2019-03-25T07:52:54.389Z,10.58
2019-03-25T07:55:24.651Z,11.30
2019-03-25T07:57:54.894Z,10.53
2019-03-25T08:00:25.074Z,11.22
2019-03-25T08:02:55.414Z,12.07
2019-03-25T08:05:25.697Z,11.88
2019-03-25T08:07:55.855Z,11.68
2019-03-25T08:10:36.491Z,11.35
2019-03-25T08:13:06.928Z,11.70
2019-03-25T08:15:37.241Z,11.88
2019-03-25T08:18:07.466Z,13.10
2019-03-25T08:20:37.721Z,12.60
2019-03-25T08:23:07.942Z,12.07
2019-03-25T08:25:38.167Z,12.93
2019-03-25T08:28:08.456Z,12.90
2019-03-25T08:30:38.793Z,12.45
2019-03-25T08:33:09.109Z,12.78
2019-03-25T08:35:39.254Z,13.03
2019-03-25T08:38:09.499Z,12.20
2019-03-25T08:40:39.731Z,12.85
2019-03-25T08:43:10.099Z,12.63
2019-03-25T08:45:40.437Z,12.70
2019-03-25T08:48:10.760Z,12.20
2019-03-25T08:50:41.165Z,12.65
2019-03-25T08:53:11.430Z,12.37
2019-03-25T08:55:41.654Z,12.18
2019-03-25T08:58:12.581Z,11.65
2019-03-25T09:00:42.917Z,10.98
2019-03-25T09:03:13.140Z,11.15
2019-03-25T09:05:43.436Z,10.68
2019-03-25T09:08:13.673Z,11.20
2019-03-25T09:10:43.997Z,10.88
2019-03-25T09:13:14.245Z,11.15
2019-03-25T09:15:44.457Z,11.55
2019-03-25T09:18:14.690Z,10.53
2019-03-25T09:20:44.879Z,10.40
2019-03-25T09:23:15.317Z,10.32
2019-03-25T09:25:45.634Z,10.45
2019-03-25T09:28:24.032Z,10.10
2019-03-25T09:31:20.112Z,11.03
2019-03-25T09:33:50.448Z,11.00
2019-03-25T09:36:21.300Z,10.82
2019-03-25T09:38:51.388Z,10.43
2019-03-25T09:41:21.612Z,11.25
2019-03-25T09:43:51.906Z,10.32
2019-03-25T09:46:22.230Z,11.85
2019-03-25T09:48:52.490Z,10.85
2019-03-25T09:51:22.709Z,12.10
2019-03-25T09:53:52.937Z,11.25
2019-03-25T09:56:23.267Z,10.95
2019-03-25T09:58:53.789Z,10.72
2019-03-25T10:01:23.979Z,11.00
2019-03-25T10:03:54.413Z,10.65
2019-03-25T10:06:24.668Z,11.33
2019-03-25T10:08:54.901Z,11.78
2019-03-25T10:11:25.102Z,13.32
2019-03-25T10:13:55.410Z,13.25
2019-03-25T10:16:25.729Z,13.38
2019-03-25T10:18:56.058Z,13.68
2019-03-25T10:21:26.307Z,14.13
2019-03-25T10:23:56.543Z,14.25
2019-03-25T10:26:26.848Z,13.48
2019-03-25T10:28:57.185Z,12.20
2019-03-25T10:31:27.518Z,12.82
2019-03-25T10:33:57.805Z,13.60
2019-03-25T10:36:28.119Z,15.05
2019-03-25T10:38:58.518Z,14.75
2019-03-25T10:41:28.700Z,15.65
2019-03-25T10:43:58.932Z,18.77
2019-03-25T10:46:29.225Z,18.95
2019-03-25T10:48:59.542Z,18.20
2019-03-25T10:51:29.777Z,21.40
2019-03-25T10:54:00.118Z,35.35
2019-03-25T10:56:30.362Z,38.45
2019-03-25T10:59:00.461Z,38.45
2019-03-25T11:01:30.768Z,35.98
2019-03-25T11:04:01.100Z,36.17
2019-03-25T11:06:31.524Z,37.90
2019-03-25T11:09:01.677Z,37.30
2019-03-25T11:11:31.897Z,35.58
2019-03-25T11:14:02.109Z,36.48
2019-03-25T11:16:32.413Z,37.95
2019-03-25T11:19:02.728Z,38.55
2019-03-25T11:21:32.888Z,36.63
2019-03-25T11:24:03.100Z,37.23
2019-03-25T11:26:33.336Z,34.58
2019-03-25T11:29:08.304Z,35.83
2019-03-25T11:31:35.599Z,35.15
2019-03-25T11:34:06.016Z,34.25
2019-03-25T11:36:36.264Z,33.85
2019-03-25T11:39:07.945Z,32.78
2019-03-25T11:41:38.157Z,32.20
2019-03-25T11:44:08.445Z,32.13
2019-03-25T11:46:38.825Z,31.45
2019-03-25T11:49:09.092Z,32.20
2019-03-25T11:51:39.340Z,31.62
2019-03-25T11:54:09.579Z,31.80
2019-03-25T11:56:39.866Z,30.25
2019-03-25T11:59:18.250Z,29.23
2019-03-25T12:01:42.151Z,31.17
2019-03-25T12:04:12.478Z,30.48
2019-03-25T12:06:42.734Z,32.35
2019-03-25T12:09:12.954Z,33.88
2019-03-25T12:11:43.272Z,32.80
2019-03-25T12:14:13.580Z,31.77
2019-03-25T12:16:43.896Z,33.18
2019-03-25T12:19:14.235Z,39.73
2019-03-25T12:21:44.472Z,53.33
2019-03-25T12:24:14.701Z,56.02
2019-03-25T12:26:45.034Z,52.58
2019-03-25T12:29:15.426Z,50.73
2019-03-25T12:31:45.749Z,50.23
2019-03-25T12:34:16.152Z,48.23
2019-03-25T12:36:46.502Z,46.75
2019-03-25T12:39:16.752Z,47.80
2019-03-25T12:41:46.995Z,45.35
2019-03-25T12:44:17.205Z,46.00
2019-03-25T12:46:47.511Z,45.75
2019-03-25T12:49:17.826Z,47.15
2019-03-25T12:51:48.595Z,45.20
2019-03-25T12:54:18.881Z,43.70
2019-03-25T12:56:49.248Z,44.30
2019-03-25T12:59:19.463Z,42.93
2019-03-25T13:01:53.177Z,43.33
2019-03-25T13:04:21.754Z,41.53
2019-03-25T13:06:51.983Z,43.13
2019-03-25T13:09:22.301Z,40.28
2019-03-25T13:11:52.591Z,42.27
2019-03-25T13:14:22.826Z,40.60
2019-03-25T13:16:53.188Z,41.95
2019-03-25T13:19:23.402Z,41.10
2019-03-25T13:21:53.614Z,40.83
2019-03-25T13:24:23.917Z,39.30
2019-03-25T13:26:54.238Z,41.23
2019-03-25T13:29:24.670Z,40.33
2019-03-25T13:31:54.994Z,39.60
2019-03-25T13:34:25.343Z,40.60
2019-03-25T13:36:55.564Z,38.35
2019-03-25T13:39:25.793Z,38.35
2019-03-25T13:41:56.085Z,38.33
2019-03-25T13:44:26.428Z,35.28
2019-03-25T13:46:56.732Z,38.17
2019-03-25T13:49:26.892Z,38.28
2019-03-25T13:51:57.120Z,35.55
2019-03-25T13:54:27.452Z,36.00
2019-03-25T13:56:57.732Z,36.83
2019-03-25T13:59:27.966Z,36.60
2019-03-25T14:01:58.276Z,35.30
2019-03-25T14:04:28.551Z,34.00
2019-03-25T14:06:58.750Z,33.70
2019-03-25T14:09:28.988Z,33.18
2019-03-25T14:11:59.381Z,34.38
2019-03-25T14:14:29.674Z,33.48
2019-03-25T14:16:59.926Z,32.88
2019-03-25T14:19:30.075Z,32.42
2019-03-25T14:22:00.350Z,31.40
2019-03-25T14:24:30.520Z,31.77
2019-03-25T14:27:00.853Z,31.82
2019-03-25T14:29:31.137Z,32.20
2019-03-25T14:32:01.396Z,30.75
2019-03-25T14:34:31.607Z,30.10
2019-03-25T14:37:01.842Z,29.98
2019-03-25T14:39:32.135Z,31.15
2019-03-25T14:42:02.469Z,31.12
2019-03-25T14:44:32.790Z,29.85
2019-03-25T14:47:03.038Z,29.92
2019-03-25T14:49:33.261Z,32.85
2019-03-25T14:52:03.606Z,31.97
2019-03-25T14:54:33.886Z,31.10
2019-03-25T14:57:04.220Z,30.43
2019-03-25T14:59:34.537Z,30.30
2019-03-25T15:02:04.792Z,30.65
2019-03-25T15:04:35.007Z,29.25
2019-03-25T15:07:05.338Z,29.35
2019-03-25T15:09:35.658Z,28.73
2019-03-25T15:12:05.959Z,27.32
2019-03-25T15:14:36.288Z,27.95
2019-03-25T15:17:06.725Z,26.57
2019-03-25T15:19:36.978Z,27.58
2019-03-25T15:22:07.193Z,27.87
2019-03-25T15:24:37.425Z,27.02
2019-03-25T15:27:07.804Z,27.10
2019-03-25T15:29:38.132Z,25.77
2019-03-25T15:32:08.387Z,25.90
2019-03-25T15:34:38.604Z,26.33
2019-03-25T15:37:08.832Z,25.62
2019-03-25T15:39:46.669Z,26.05
2019-03-25T15:42:11.183Z,26.93
2019-03-25T15:44:41.423Z,25.48
2019-03-25T15:47:11.801Z,26.23
2019-03-25T15:49:41.998Z,27.58
2019-03-25T15:52:12.323Z,25.40
2019-03-25T15:54:42.536Z,25.60
2019-03-25T15:57:12.938Z,24.80
2019-03-25T15:59:43.373Z,24.60
2019-03-25T16:02:13.696Z,22.05
2019-03-25T16:04:43.918Z,21.37
2019-03-25T16:07:14.179Z,18.80
2019-03-25T16:09:44.439Z,20.90
2019-03-25T16:12:14.696Z,19.10
2019-03-25T16:14:45.164Z,17.98
2019-03-25T16:17:15.446Z,18.35
2019-03-25T16:19:45.769Z,16.85
2019-03-25T16:22:16.167Z,17.60
2019-03-25T16:24:46.337Z,13.30
2019-03-25T16:27:16.697Z,16.30
2019-03-25T16:29:46.899Z,18.77
2019-03-25T16:32:17.197Z,17.10
2019-03-25T16:34:47.517Z,16.27
2019-03-25T16:37:17.770Z,17.60
2019-03-25T16:39:47.976Z,16.40
2019-03-25T16:42:18.228Z,16.82
2019-03-25T16:44:48.545Z,15.93
2019-03-25T16:47:18.872Z,15.93
2019-03-25T16:49:49.184Z,23.75
2019-03-25T16:52:19.448Z,18.17
2019-03-25T16:54:49.659Z,22.50
2019-03-25T16:57:19.643Z,21.00
2019-03-25T16:59:49.950Z,19.17
2019-03-25T17:02:20.279Z,19.45
2019-03-25T17:04:50.435Z,19.25
2019-03-25T17:07:20.651Z,18.98
2019-03-25T17:09:50.853Z,18.82
2019-03-25T17:12:21.162Z,18.10
2019-03-25T17:14:51.485Z,18.40
2019-03-25T17:17:21.815Z,18.62
2019-03-25T17:19:52.059Z,19.57
2019-03-25T17:22:22.288Z,18.25
2019-03-25T17:24:52.620Z,18.10
2019-03-25T17:27:22.929Z,18.20
2019-03-25T17:29:53.233Z,17.35
2019-03-25T17:32:23.491Z,18.17
2019-03-25T17:34:53.708Z,17.65
2019-03-25T17:37:23.950Z,16.93
2019-03-25T17:39:54.224Z,17.23
2019-03-25T17:42:24.458Z,17.30
2019-03-25T17:44:54.744Z,16.57
2019-03-25T17:47:24.967Z,16.65
2019-03-25T17:49:55.166Z,16.97
2019-03-25T17:52:25.439Z,16.30
2019-03-25T17:54:55.676Z,16.67
2019-03-25T17:57:26.039Z,16.48
2019-03-25T17:59:56.260Z,15.23
2019-03-25T18:02:26.482Z,14.80
2019-03-25T18:04:56.773Z,15.35
2019-03-25T18:07:27.088Z,15.05
2019-03-25T18:09:57.418Z,15.90
2019-03-25T18:12:38.261Z,15.58
2019-03-25T18:14:59.531Z,14.50
2019-03-25T18:17:29.755Z,14.68
2019-03-25T18:20:00.328Z,14.33
2019-03-25T18:22:39.261Z,15.08
2019-03-25T18:25:02.698Z,15.58
2019-03-25T18:27:32.970Z,14.80
2019-03-25T18:30:03.415Z,14.53
2019-03-25T18:32:33.658Z,14.78
2019-03-25T18:35:03.902Z,14.60
2019-03-25T18:37:34.205Z,14.70
2019-03-25T18:40:04.424Z,13.98
2019-03-25T18:42:34.623Z,13.75
2019-03-25T18:45:05.457Z,14.23
2019-03-25T18:47:35.825Z,13.40
2019-03-25T18:50:06.324Z,13.00
2019-03-25T18:52:36.547Z,12.63
2019-03-25T18:55:06.894Z,13.22
2019-03-25T18:57:37.171Z,12.43
2019-03-25T19:00:07.582Z,13.08
2019-03-25T19:02:37.768Z,13.30
2019-03-25T19:05:07.881Z,12.45
2019-03-25T19:07:38.231Z,13.35
2019-03-25T19:10:08.551Z,12.58
2019-03-25T19:12:38.838Z,12.05
2019-03-25T19:15:09.178Z,13.25
2019-03-25T19:17:39.541Z,12.33
2019-03-25T19:20:09.837Z,12.68
2019-03-25T19:22:40.090Z,11.33
2019-03-25T19:25:10.347Z,12.23
2019-03-25T19:27:40.606Z,11.57
2019-03-25T19:30:13.358Z,11.35
2019-03-25T19:32:43.585Z,11.93
2019-03-25T19:35:13.833Z,11.00
2019-03-25T19:37:44.394Z,11.75
2019-03-25T19:40:14.689Z,11.85
2019-03-25T19:42:45.028Z,11.90
2019-03-25T19:45:15.324Z,11.80
2019-03-25T19:47:45.660Z,11.90
2019-03-25T19:50:15.963Z,11.55
2019-03-25T19:52:46.114Z,11.90
2019-03-25T19:55:16.338Z,11.28
2019-03-25T19:57:46.650Z,11.45
2019-03-25T20:00:18.469Z,12.33
2019-03-25T20:02:49.113Z,11.57
2019-03-25T20:05:19.589Z,11.33
2019-03-25T20:07:50.000Z,11.53
2019-03-25T20:10:33.576Z,11.20
2019-03-25T20:13:03.762Z,11.70
2019-03-25T20:15:45.592Z,10.78
2019-03-25T20:18:06.135Z,10.68
2019-03-25T20:20:36.407Z,11.28
2019-03-25T20:23:06.727Z,11.57
2019-03-25T20:25:36.897Z,10.65
2019-03-25T20:28:07.402Z,11.12
2019-03-25T20:30:37.785Z,11.10
2019-03-25T20:33:08.273Z,12.53
2019-03-25T20:35:38.632Z,12.80
2019-03-25T20:38:08.869Z,11.68
2019-03-25T20:40:39.130Z,11.45
2019-03-25T20:43:09.497Z,11.75
2019-03-25T20:45:39.849Z,11.75
2019-03-25T20:48:10.113Z,11.48
2019-03-25T20:50:40.488Z,11.90
2019-03-25T20:53:10.822Z,11.40
2019-03-25T20:55:41.035Z,11.75
2019-03-25T20:58:11.260Z,10.82
2019-03-25T21:00:51.928Z,11.00
2019-03-25T21:03:22.387Z,11.78
2019-03-25T21:05:52.641Z,9.93
2019-03-25T21:08:22.913Z,10.65
2019-03-25T21:10:53.199Z,10.90
2019-03-25T21:13:23.511Z,11.12
2019-03-25T21:15:53.848Z,10.72
2019-03-25T21:18:24.140Z,10.53
2019-03-25T21:20:54.427Z,10.63
2019-03-25T21:23:24.641Z,11.00
2019-03-25T21:25:54.872Z,10.55
2019-03-25T21:28:25.083Z,10.35
2019-03-25T21:30:55.397Z,10.05
2019-03-25T21:33:25.725Z,10.05
2019-03-25T21:35:55.993Z,9.78
2019-03-25T21:38:26.196Z,9.88
2019-03-25T21:40:56.453Z,10.50
2019-03-25T21:43:26.783Z,10.90
2019-03-25T21:45:57.130Z,10.55
2019-03-25T21:48:27.350Z,9.80
2019-03-25T21:50:57.531Z,9.90
2019-03-25T21:53:27.730Z,11.03
2019-03-25T21:55:58.050Z,9.18
2019-03-25T21:58:28.446Z,9.48
2019-03-25T22:00:58.784Z,9.75
2019-03-25T22:03:29.097Z,9.30
2019-03-25T22:05:59.360Z,9.28
2019-03-25T22:08:29.586Z,9.38
2019-03-25T22:10:59.799Z,9.38
2019-03-25T22:13:30.095Z,9.28
2019-03-25T22:16:00.319Z,9.05
2019-03-25T22:18:30.942Z,9.63
2019-03-25T22:21:01.176Z,9.50
2019-03-25T22:23:31.379Z,9.30
2019-03-25T22:26:01.539Z,8.93
2019-03-25T22:28:31.871Z,9.40
2019-03-25T22:31:02.170Z,9.30
2019-03-25T22:33:32.496Z,8.65
2019-03-25T22:36:02.639Z,8.90
2019-03-25T22:38:32.978Z,9.10
2019-03-25T22:41:03.160Z,9.05
2019-03-25T22:43:33.418Z,8.43
2019-03-25T22:46:03.632Z,8.15
2019-03-25T22:48:33.863Z,9.15
2019-03-25T22:51:04.079Z,8.38
2019-03-25T22:53:34.389Z,8.90
2019-03-25T22:56:04.707Z,8.43
2019-03-25T22:58:35.037Z,8.18
2019-03-25T23:01:05.356Z,8.60
2019-03-25T23:03:39.452Z,8.18
2019-03-25T23:06:07.568Z,7.78
2019-03-25T23:08:37.812Z,8.38
2019-03-25T23:11:08.090Z,8.55
2019-03-25T23:13:38.511Z,8.35
2019-03-25T23:16:08.911Z,8.25
2019-03-25T23:18:39.352Z,8.20
2019-03-25T23:21:09.691Z,8.73
2019-03-25T23:23:40.031Z,7.97
2019-03-25T23:26:10.349Z,8.40
2019-03-25T23:28:40.689Z,7.70
2019-03-25T23:31:11.015Z,7.97
2019-03-25T23:33:51.761Z,7.92
2019-03-25T23:36:13.598Z,8.43
2019-03-25T23:38:43.988Z,8.00
2019-03-25T23:41:14.438Z,8.03
2019-03-25T23:43:44.862Z,7.53
2019-03-25T23:46:15.289Z,7.47
2019-03-25T23:48:45.709Z,7.58
2019-03-25T23:51:16.066Z,7.60
2019-03-25T23:53:46.393Z,7.30
2019-03-25T23:56:18.763Z,7.00
2019-03-25T23:58:48.779Z,7.33
